createdAt,value
2018-08-31T00:01:57.025Z,3.53
2018-08-31T00:04:38.077Z,3.77
2018-08-31T00:07:24.793Z,4.47
2018-08-31T00:10:36.671Z,4.70
2018-08-31T00:13:05.972Z,2.70
2018-08-31T00:15:35.055Z,3.43
2018-08-31T00:18:04.210Z,3.77
2018-08-31T00:20:33.209Z,2.97
2018-08-31T00:23:02.250Z,5.57
2018-08-31T00:26:39.690Z,4.27
2018-08-31T00:29:52.429Z,3.77
2018-08-31T00:34:39.334Z,3.83
2018-08-31T00:37:53.333Z,4.93
2018-08-31T00:40:32.029Z,4.27
2018-08-31T00:45:35.489Z,5.57
2018-08-31T00:48:05.081Z,7.27
2018-08-31T00:50:34.443Z,3.60
2018-08-31T00:53:04.183Z,3.00
2018-08-31T00:55:33.341Z,4.40
2018-08-31T00:58:02.408Z,5.20
2018-08-31T01:00:31.465Z,2.80
2018-08-31T01:03:00.521Z,5.10
2018-08-31T01:05:29.535Z,5.53
2018-08-31T01:07:58.588Z,3.30
2018-08-31T01:10:27.597Z,3.53
2018-08-31T01:12:56.648Z,4.27
2018-08-31T01:15:25.705Z,5.53
2018-08-31T01:17:54.744Z,4.10
2018-08-31T01:20:23.848Z,3.97
2018-08-31T01:22:53.230Z,2.93
2018-08-31T01:25:22.269Z,5.23
2018-08-31T01:27:51.348Z,3.47
2018-08-31T01:30:20.405Z,3.93
2018-08-31T01:32:49.394Z,7.33
2018-08-31T01:35:18.429Z,5.30
2018-08-31T01:37:47.473Z,6.33
2018-08-31T01:40:16.510Z,5.60
2018-08-31T01:42:45.542Z,5.37
2018-08-31T01:45:14.620Z,6.00
2018-08-31T01:47:43.720Z,2.87
2018-08-31T01:50:12.805Z,3.63
2018-08-31T01:52:41.844Z,4.60
2018-08-31T01:55:10.886Z,3.30
2018-08-31T01:57:40.058Z,3.30
2018-08-31T02:00:09.109Z,2.90
2018-08-31T02:02:38.168Z,8.17
2018-08-31T02:05:07.409Z,3.97
2018-08-31T02:07:36.463Z,5.93
2018-08-31T02:10:06.037Z,3.70
2018-08-31T02:12:35.066Z,3.43
2018-08-31T02:15:04.141Z,4.80
2018-08-31T02:17:33.148Z,2.93
2018-08-31T02:20:02.221Z,3.30
2018-08-31T02:22:31.340Z,5.03
2018-08-31T02:25:00.337Z,4.10
2018-08-31T02:27:29.366Z,3.77
2018-08-31T02:29:58.408Z,2.83
2018-08-31T02:32:27.461Z,3.90
2018-08-31T02:34:56.581Z,6.00
2018-08-31T02:37:25.611Z,3.83
2018-08-31T02:39:54.662Z,5.67
2018-08-31T02:42:23.686Z,5.97
2018-08-31T02:44:52.735Z,4.80
2018-08-31T02:47:21.818Z,5.57
2018-08-31T02:49:50.916Z,4.03
2018-08-31T02:52:20.340Z,4.43
2018-08-31T02:54:49.486Z,4.93
2018-08-31T02:59:26.196Z,8.43
2018-08-31T03:01:55.206Z,4.53
2018-08-31T03:04:24.382Z,3.57
2018-08-31T03:06:53.482Z,3.60
2018-08-31T03:09:22.473Z,4.17
2018-08-31T03:11:51.590Z,4.30
2018-08-31T03:14:20.592Z,3.23
2018-08-31T03:16:49.652Z,3.73
2018-08-31T03:19:18.692Z,3.50
2018-08-31T03:21:47.687Z,6.17
2018-08-31T03:24:16.744Z,4.80
2018-08-31T03:26:45.801Z,6.53
2018-08-31T03:29:14.961Z,5.87
2018-08-31T03:31:43.973Z,7.53
2018-08-31T03:34:13.054Z,4.30
2018-08-31T03:36:42.126Z,4.03
2018-08-31T03:39:11.323Z,2.87
2018-08-31T03:41:40.384Z,3.10
2018-08-31T03:44:09.384Z,3.90
2018-08-31T03:46:38.433Z,3.80
2018-08-31T03:49:07.490Z,4.07
2018-08-31T03:51:36.543Z,4.40
2018-08-31T03:54:05.852Z,4.07
2018-08-31T03:56:34.914Z,3.47
2018-08-31T03:59:03.954Z,4.83
2018-08-31T04:01:33.009Z,5.40
2018-08-31T04:04:02.321Z,5.50
2018-08-31T04:06:31.377Z,4.10
2018-08-31T04:09:00.430Z,7.30
2018-08-31T04:11:29.492Z,5.60
2018-08-31T04:13:58.497Z,4.50
2018-08-31T04:16:27.548Z,3.77
2018-08-31T04:18:56.541Z,2.67
2018-08-31T04:21:25.557Z,4.83
2018-08-31T04:23:54.613Z,3.70
2018-08-31T04:26:23.624Z,7.53
2018-08-31T04:28:52.693Z,8.27
2018-08-31T04:31:21.732Z,6.33
2018-08-31T04:33:50.868Z,4.43
2018-08-31T04:36:19.887Z,5.53
2018-08-31T04:38:48.909Z,3.80
2018-08-31T04:41:18.106Z,4.93
2018-08-31T04:43:47.160Z,4.70
2018-08-31T04:46:16.305Z,4.87
2018-08-31T04:48:45.366Z,4.50
2018-08-31T04:51:14.387Z,4.00
2018-08-31T04:53:43.412Z,3.33
2018-08-31T04:56:12.429Z,9.63
2018-08-31T04:58:41.474Z,5.67
2018-08-31T05:01:10.534Z,4.77
2018-08-31T05:03:39.693Z,4.53
2018-08-31T05:06:08.758Z,3.93
2018-08-31T05:08:37.841Z,4.83
2018-08-31T05:11:06.884Z,4.00
2018-08-31T05:13:36.916Z,3.80
2018-08-31T05:16:05.924Z,6.77
2018-08-31T05:18:34.987Z,4.43
2018-08-31T05:21:04.153Z,4.20
2018-08-31T05:23:33.227Z,6.50
2018-08-31T05:30:39.829Z,4.97
2018-08-31T05:33:08.917Z,5.77
2018-08-31T05:35:37.972Z,3.63
2018-08-31T05:38:07.086Z,7.83
2018-08-31T05:40:36.077Z,5.47
2018-08-31T05:43:05.141Z,5.17
2018-08-31T05:45:34.194Z,5.93
2018-08-31T05:48:03.275Z,3.97
2018-08-31T05:50:32.554Z,6.00
2018-08-31T05:53:01.645Z,3.53
2018-08-31T05:55:30.670Z,5.37
2018-08-31T05:57:59.846Z,4.03
2018-08-31T06:00:28.932Z,7.10
2018-08-31T06:02:57.974Z,4.70
2018-08-31T06:05:27.108Z,4.73
2018-08-31T06:07:56.116Z,4.73
2018-08-31T06:10:25.194Z,9.20
2018-08-31T06:12:54.237Z,5.37
2018-08-31T06:15:23.265Z,6.17
2018-08-31T06:17:52.303Z,4.90
2018-08-31T06:20:21.312Z,3.53
2018-08-31T06:22:50.386Z,4.90
2018-08-31T06:25:19.387Z,3.87
2018-08-31T06:27:48.507Z,6.33
2018-08-31T06:30:17.532Z,5.37
2018-08-31T06:32:46.635Z,11.60
2018-08-31T06:35:15.633Z,6.37
2018-08-31T06:37:44.745Z,7.63
2018-08-31T06:40:13.950Z,5.03
2018-08-31T06:42:43.133Z,9.90
2018-08-31T06:45:12.166Z,5.20
2018-08-31T06:47:41.157Z,7.53
2018-08-31T06:50:10.233Z,5.93
2018-08-31T06:52:39.241Z,4.50
2018-08-31T06:55:08.337Z,6.63
2018-08-31T06:57:37.390Z,5.53
2018-08-31T07:00:07.361Z,7.00
2018-08-31T07:02:36.447Z,8.60
2018-08-31T07:05:06.155Z,6.27
2018-08-31T07:07:35.220Z,4.30
2018-08-31T07:10:04.395Z,6.00
2018-08-31T07:12:33.498Z,5.40
2018-08-31T07:15:02.535Z,7.80
2018-08-31T07:17:31.601Z,5.90
2018-08-31T07:20:00.603Z,5.70
2018-08-31T07:22:29.650Z,4.53
2018-08-31T07:24:58.768Z,8.30
2018-08-31T07:27:27.902Z,7.40
2018-08-31T07:29:56.946Z,4.40
2018-08-31T07:32:26.568Z,5.73
2018-08-31T07:34:55.737Z,10.87
2018-08-31T07:37:24.844Z,5.50
2018-08-31T07:39:53.949Z,7.80
2018-08-31T07:42:23.078Z,4.80
2018-08-31T07:44:52.170Z,4.53
2018-08-31T07:47:21.344Z,7.47
2018-08-31T07:49:50.401Z,5.63
2018-08-31T07:52:19.450Z,4.07
2018-08-31T07:54:48.601Z,6.90
2018-08-31T07:57:17.647Z,5.07
2018-08-31T07:59:46.746Z,5.40
2018-08-31T08:02:15.872Z,5.60
2018-08-31T08:04:44.996Z,6.20
2018-08-31T08:07:14.040Z,6.20
2018-08-31T08:09:43.098Z,4.77
2018-08-31T08:12:12.209Z,6.37
2018-08-31T08:14:41.344Z,10.20
2018-08-31T08:17:10.398Z,4.33
2018-08-31T08:19:39.614Z,6.77
2018-08-31T08:22:08.711Z,5.87
2018-08-31T08:24:37.802Z,7.23
2018-08-31T08:27:06.956Z,4.97
2018-08-31T08:29:35.996Z,6.40
2018-08-31T08:32:05.058Z,6.87
2018-08-31T08:34:34.129Z,5.87
2018-08-31T08:37:03.277Z,8.30
2018-08-31T08:39:32.777Z,5.33
2018-08-31T08:42:01.823Z,4.27
2018-08-31T08:44:30.973Z,6.93
2018-08-31T08:46:59.993Z,5.47
2018-08-31T08:49:29.106Z,4.97
2018-08-31T08:51:58.209Z,5.20
2018-08-31T08:54:27.279Z,6.40
2018-08-31T08:56:56.457Z,4.53
2018-08-31T08:59:25.928Z,3.90
2018-08-31T09:01:54.957Z,5.03
2018-08-31T09:04:24.190Z,8.83
2018-08-31T09:06:53.793Z,4.83
2018-08-31T09:09:22.886Z,4.33
2018-08-31T09:11:52.372Z,5.40
2018-08-31T09:14:21.462Z,3.93
2018-08-31T09:16:50.549Z,4.33
2018-08-31T09:19:20.457Z,7.10
2018-08-31T09:21:50.622Z,4.87
2018-08-31T09:24:20.469Z,9.77
2018-08-31T09:26:49.906Z,7.17
2018-08-31T09:29:19.954Z,5.07
2018-08-31T09:31:49.109Z,5.73
2018-08-31T09:34:18.181Z,4.37
2018-08-31T09:36:47.231Z,4.60
2018-08-31T09:39:16.575Z,5.23
2018-08-31T09:41:45.625Z,11.27
2018-08-31T09:44:14.690Z,6.23
2018-08-31T09:46:43.889Z,8.53
2018-08-31T09:49:12.997Z,8.63
2018-08-31T09:51:42.277Z,5.53
2018-08-31T09:54:12.013Z,7.60
2018-08-31T09:56:41.120Z,6.10
2018-08-31T09:59:11.573Z,7.27
2018-08-31T10:01:40.718Z,7.57
2018-08-31T10:04:09.856Z,7.13
2018-08-31T10:06:38.905Z,6.00
2018-08-31T10:09:09.293Z,5.67
2018-08-31T10:11:39.253Z,7.77
2018-08-31T10:14:08.708Z,5.80
2018-08-31T10:16:37.742Z,7.33
2018-08-31T10:19:07.175Z,6.57
2018-08-31T10:21:36.182Z,7.87
2018-08-31T10:24:05.362Z,5.50
2018-08-31T10:26:34.463Z,10.03
2018-08-31T10:29:03.650Z,7.27
2018-08-31T10:31:32.866Z,7.47
2018-08-31T10:34:01.952Z,6.63
2018-08-31T10:36:30.974Z,5.67
2018-08-31T10:39:00.006Z,7.17
2018-08-31T10:41:29.062Z,7.33
2018-08-31T10:43:58.795Z,10.13
2018-08-31T10:46:27.941Z,8.13
2018-08-31T10:48:57.147Z,6.73
2018-08-31T10:51:26.305Z,6.60
2018-08-31T10:53:55.331Z,7.23
2018-08-31T10:56:24.413Z,6.37
2018-08-31T10:58:53.595Z,6.03
2018-08-31T11:01:22.665Z,6.50
2018-08-31T11:03:51.832Z,6.93
2018-08-31T11:06:20.886Z,7.33
2018-08-31T11:08:50.122Z,6.63
2018-08-31T11:11:20.540Z,7.07
2018-08-31T11:13:51.503Z,6.93
2018-08-31T11:16:23.609Z,6.17
2018-08-31T11:18:54.461Z,5.83
2018-08-31T11:21:23.742Z,8.57
2018-08-31T11:23:54.592Z,7.90
2018-08-31T11:26:34.766Z,6.27
2018-08-31T11:29:03.880Z,9.17
2018-08-31T11:31:32.970Z,7.93
2018-08-31T11:34:02.033Z,7.30
2018-08-31T11:36:31.250Z,5.93
2018-08-31T11:39:00.346Z,7.50
2018-08-31T11:41:29.413Z,6.33
2018-08-31T11:43:58.612Z,9.87
2018-08-31T11:46:27.656Z,8.53
2018-08-31T11:48:56.702Z,7.90
2018-08-31T11:51:25.818Z,8.00
2018-08-31T11:53:55.108Z,8.53
2018-08-31T11:56:24.292Z,8.70
2018-08-31T11:58:53.347Z,8.33
2018-08-31T12:01:22.484Z,7.00
2018-08-31T12:03:51.518Z,9.63
2018-08-31T12:06:20.619Z,8.60
2018-08-31T12:08:49.661Z,8.70
2018-08-31T12:11:18.698Z,9.77
2018-08-31T12:13:47.740Z,8.17
2018-08-31T12:16:18.824Z,10.10
2018-08-31T12:18:48.099Z,7.63
2018-08-31T12:21:18.158Z,8.13
2018-08-31T12:23:47.216Z,8.33
2018-08-31T12:26:16.652Z,6.50
2018-08-31T12:28:45.693Z,8.90
2018-08-31T12:31:15.291Z,8.83
2018-08-31T12:33:44.659Z,8.47
2018-08-31T12:36:13.737Z,7.83
2018-08-31T12:38:42.779Z,9.20
2018-08-31T12:41:12.305Z,7.13
2018-08-31T12:43:41.578Z,7.30
2018-08-31T12:46:10.617Z,7.50
2018-08-31T12:48:40.310Z,7.27
2018-08-31T12:51:10.514Z,7.47
2018-08-31T12:53:39.998Z,7.10
2018-08-31T12:56:09.180Z,9.40
2018-08-31T12:58:38.597Z,9.17
2018-08-31T13:01:07.738Z,7.07
2018-08-31T13:03:36.826Z,8.27
2018-08-31T13:06:05.849Z,7.30
2018-08-31T13:08:34.892Z,7.77
2018-08-31T13:11:04.038Z,7.50
2018-08-31T13:13:33.079Z,8.30
2018-08-31T13:16:02.144Z,6.87
2018-08-31T13:18:31.152Z,7.90
2018-08-31T13:21:00.212Z,8.80
2018-08-31T13:23:29.329Z,9.23
2018-08-31T13:25:58.480Z,7.60
2018-08-31T13:28:27.720Z,8.70
2018-08-31T13:30:58.298Z,8.80
2018-08-31T13:33:27.345Z,10.80
2018-08-31T13:35:56.410Z,7.47
2018-08-31T13:38:25.588Z,6.97
2018-08-31T13:40:54.557Z,8.67
2018-08-31T13:46:32.749Z,7.97
2018-08-31T13:49:01.862Z,7.63
2018-08-31T13:51:31.373Z,7.57
2018-08-31T13:54:00.561Z,8.60
2018-08-31T13:56:29.640Z,9.97
2018-08-31T13:58:58.689Z,8.80
2018-08-31T14:01:27.925Z,9.73
2018-08-31T14:03:56.989Z,9.73
2018-08-31T14:06:26.078Z,7.63
2018-08-31T14:08:55.087Z,7.93
2018-08-31T14:11:24.152Z,7.63
2018-08-31T14:13:53.289Z,9.50
2018-08-31T14:16:22.375Z,7.77
2018-08-31T14:18:51.433Z,7.53
2018-08-31T14:21:20.476Z,8.00
2018-08-31T14:23:49.784Z,8.53
2018-08-31T14:26:18.859Z,8.20
2018-08-31T14:28:48.031Z,8.53
2018-08-31T14:31:17.141Z,7.50
2018-08-31T14:33:46.214Z,8.47
2018-08-31T14:36:15.210Z,7.97
2018-08-31T14:38:44.216Z,9.50
2018-08-31T14:41:13.266Z,10.47
2018-08-31T14:43:42.309Z,9.57
2018-08-31T14:46:11.344Z,8.83
2018-08-31T14:48:40.383Z,8.97
2018-08-31T14:51:09.445Z,11.20
2018-08-31T14:53:38.441Z,7.87
2018-08-31T14:56:07.559Z,7.70
2018-08-31T14:58:36.661Z,8.50
2018-08-31T15:01:06.025Z,10.00
2018-08-31T15:03:35.053Z,9.23
2018-08-31T15:06:04.055Z,9.67
2018-08-31T15:08:33.111Z,9.30
2018-08-31T15:11:02.151Z,7.87
2018-08-31T15:13:31.165Z,9.63
2018-08-31T15:16:00.205Z,7.60
2018-08-31T15:18:29.220Z,9.17
2018-08-31T15:20:58.248Z,9.43
2018-08-31T15:23:27.295Z,9.63
2018-08-31T15:25:56.489Z,9.27
2018-08-31T15:28:25.566Z,9.17
2018-08-31T15:30:55.045Z,10.20
2018-08-31T15:33:24.066Z,12.20
2018-08-31T15:35:53.128Z,10.20
2018-08-31T15:38:22.165Z,8.97
2018-08-31T15:40:51.173Z,10.33
2018-08-31T15:43:20.545Z,9.70
2018-08-31T15:47:57.030Z,9.93
2018-08-31T15:50:26.111Z,8.93
2018-08-31T15:52:55.157Z,10.00
2018-08-31T15:55:24.213Z,8.63
2018-08-31T15:57:53.276Z,10.67
2018-08-31T16:00:26.033Z,10.37
2018-08-31T16:02:55.115Z,9.90
2018-08-31T16:05:24.129Z,8.33
2018-08-31T16:07:53.195Z,8.60
2018-08-31T16:10:22.197Z,9.60
2018-08-31T16:12:51.900Z,10.00
2018-08-31T16:15:20.972Z,10.73
2018-08-31T16:17:50.252Z,7.90
2018-08-31T16:20:19.320Z,10.10
2018-08-31T16:22:50.782Z,10.17
2018-08-31T16:25:19.965Z,9.43
2018-08-31T16:27:48.984Z,9.20
2018-08-31T16:30:18.006Z,9.43
2018-08-31T16:32:46.996Z,9.80
2018-08-31T16:35:16.035Z,9.70
2018-08-31T16:37:45.030Z,9.23
2018-08-31T16:40:14.112Z,8.83
2018-08-31T16:42:43.289Z,9.33
2018-08-31T16:45:12.394Z,12.83
2018-08-31T16:47:41.473Z,11.87
2018-08-31T16:50:10.503Z,10.90
2018-08-31T16:52:39.561Z,10.87
2018-08-31T16:55:08.644Z,10.07
2018-08-31T16:57:42.980Z,10.20
2018-08-31T17:00:12.152Z,17.33
2018-08-31T17:02:41.080Z,9.80
2018-08-31T17:05:10.122Z,12.63
2018-08-31T17:07:39.217Z,15.47
2018-08-31T17:10:08.302Z,22.53
2018-08-31T17:12:37.329Z,24.47
2018-08-31T17:15:06.337Z,18.93
2018-08-31T17:17:35.450Z,52.07
2018-08-31T17:20:05.003Z,20.97
2018-08-31T17:22:34.085Z,21.40
2018-08-31T17:25:03.193Z,14.20
2018-08-31T17:27:37.501Z,18.77
2018-08-31T17:30:13.110Z,23.60
2018-08-31T17:32:47.270Z,39.53
2018-08-31T17:35:21.422Z,34.83
2018-08-31T17:37:50.586Z,21.57
2018-08-31T17:40:19.740Z,15.53
2018-08-31T17:42:48.757Z,12.40
2018-08-31T17:45:19.788Z,14.47
2018-08-31T17:47:49.741Z,14.17
2018-08-31T17:50:18.824Z,18.33
2018-08-31T17:52:47.923Z,25.23
2018-08-31T17:55:17.119Z,13.10
2018-08-31T17:57:46.161Z,12.33
2018-08-31T18:00:15.245Z,9.87
2018-08-31T18:02:44.298Z,12.63
2018-08-31T18:05:13.493Z,10.63
2018-08-31T18:07:42.536Z,10.37
2018-08-31T18:10:11.571Z,10.23
2018-08-31T18:12:40.641Z,10.97
2018-08-31T18:15:09.677Z,9.67
2018-08-31T18:17:38.727Z,9.50
2018-08-31T18:20:07.797Z,9.50
2018-08-31T18:22:36.829Z,9.83
2018-08-31T18:25:06.052Z,9.40
2018-08-31T18:27:35.086Z,12.53
2018-08-31T18:30:04.227Z,12.83
2018-08-31T18:32:33.281Z,11.87
2018-08-31T18:35:02.309Z,10.13
2018-08-31T18:37:31.381Z,10.80
2018-08-31T18:40:00.423Z,10.80
2018-08-31T18:42:29.466Z,13.17
2018-08-31T18:44:58.549Z,13.10
2018-08-31T18:47:27.603Z,14.47
2018-08-31T18:49:56.749Z,13.37
2018-08-31T18:52:25.814Z,17.93
2018-08-31T18:54:54.877Z,14.67
2018-08-31T18:57:24.117Z,13.80
2018-08-31T18:59:53.125Z,15.17
2018-08-31T19:02:22.204Z,14.93
2018-08-31T19:04:51.217Z,12.40
2018-08-31T19:07:20.253Z,11.87
2018-08-31T19:09:49.437Z,13.40
2018-08-31T19:12:18.964Z,15.63
2018-08-31T19:14:48.045Z,15.23
2018-08-31T19:17:17.382Z,12.23
2018-08-31T19:19:46.424Z,11.83
2018-08-31T19:22:15.413Z,14.77
2018-08-31T19:24:44.440Z,10.27
2018-08-31T19:27:13.521Z,11.60
2018-08-31T19:31:51.224Z,13.43
2018-08-31T19:34:20.260Z,11.83
2018-08-31T19:36:49.354Z,10.57
2018-08-31T19:39:18.503Z,10.97
2018-08-31T19:41:47.592Z,9.43
2018-08-31T19:44:16.739Z,12.27
2018-08-31T19:46:47.177Z,12.60
2018-08-31T19:49:16.294Z,11.83
2018-08-31T19:51:45.332Z,10.37
2018-08-31T19:54:14.373Z,11.97
2018-08-31T19:56:43.480Z,10.47
2018-08-31T19:59:12.566Z,10.00
2018-08-31T20:01:41.605Z,11.00
2018-08-31T20:04:10.758Z,9.03
2018-08-31T20:06:39.787Z,11.47
2018-08-31T20:09:09.942Z,11.33
2018-08-31T20:11:39.549Z,9.37
2018-08-31T20:14:09.249Z,10.67
2018-08-31T20:16:41.196Z,11.07
2018-08-31T20:19:17.461Z,9.43
2018-08-31T20:21:48.116Z,10.27
2018-08-31T20:24:17.178Z,9.33
2018-08-31T20:26:46.438Z,12.10
2018-08-31T20:29:15.501Z,10.00
2018-08-31T20:31:45.188Z,10.00
2018-08-31T20:34:15.120Z,10.40
2018-08-31T20:36:46.775Z,11.20
2018-08-31T20:39:34.009Z,11.03
2018-08-31T20:42:07.941Z,17.13
2018-08-31T20:44:37.538Z,25.63
2018-08-31T20:47:06.986Z,29.40
2018-08-31T20:49:36.029Z,27.90
2018-08-31T20:52:05.319Z,24.77
2018-08-31T20:54:34.433Z,23.43
2018-08-31T20:57:03.609Z,20.63
2018-08-31T20:59:32.689Z,19.10
2018-08-31T21:02:01.849Z,15.53
2018-08-31T21:04:31.009Z,15.57
2018-08-31T21:07:00.376Z,14.20
2018-08-31T21:09:29.753Z,22.13
2018-08-31T21:11:59.117Z,19.27
2018-08-31T21:14:28.288Z,17.10
2018-08-31T21:16:57.425Z,13.73
2018-08-31T21:19:26.578Z,10.83
2018-08-31T21:21:56.947Z,10.73
2018-08-31T21:26:37.426Z,13.23
2018-08-31T21:29:06.575Z,10.37
2018-08-31T21:31:35.931Z,11.50
2018-08-31T21:34:05.115Z,11.87
2018-08-31T21:36:34.383Z,8.77
2018-08-31T21:39:04.286Z,9.90
2018-08-31T21:41:33.443Z,11.70
2018-08-31T21:44:02.577Z,10.73
2018-08-31T21:46:31.875Z,13.73
2018-08-31T21:49:03.234Z,11.20
2018-08-31T21:51:32.985Z,10.50
2018-08-31T21:54:04.944Z,12.40
2018-08-31T21:56:34.324Z,9.83
2018-08-31T21:59:04.712Z,11.60
2018-08-31T22:01:42.329Z,11.13
2018-08-31T22:04:12.282Z,10.03
2018-08-31T22:06:41.638Z,11.00
2018-08-31T22:09:11.208Z,16.63
2018-08-31T22:11:40.412Z,10.83
2018-08-31T22:14:09.486Z,9.07
2018-08-31T22:16:38.617Z,13.03
2018-08-31T22:19:07.743Z,11.83
2018-08-31T22:21:37.289Z,8.87
2018-08-31T22:24:06.389Z,10.63
2018-08-31T22:26:35.462Z,12.03
2018-08-31T22:29:04.598Z,8.87
2018-08-31T22:31:33.689Z,9.80
2018-08-31T22:34:02.849Z,8.73
2018-08-31T22:36:31.873Z,9.37
2018-08-31T22:39:00.948Z,8.67
2018-08-31T22:41:29.993Z,9.80
2018-08-31T22:43:59.101Z,9.83
2018-08-31T22:46:28.203Z,9.20
2018-08-31T22:48:57.314Z,9.50
2018-08-31T22:51:26.444Z,11.67
2018-08-31T22:53:55.522Z,9.53
2018-08-31T22:56:24.645Z,10.33
2018-08-31T22:58:53.788Z,9.80
2018-08-31T23:01:22.901Z,11.63
2018-08-31T23:03:51.972Z,12.27
2018-08-31T23:06:21.069Z,11.70
2018-08-31T23:08:50.117Z,10.73
2018-08-31T23:11:19.299Z,13.30
2018-08-31T23:13:48.414Z,19.90
2018-08-31T23:16:17.871Z,16.73
2018-08-31T23:18:46.978Z,13.63
2018-08-31T23:21:16.060Z,16.13
2018-08-31T23:23:47.896Z,11.27
2018-08-31T23:26:17.533Z,14.57
2018-08-31T23:28:46.597Z,14.43
2018-08-31T23:31:15.730Z,12.13
2018-08-31T23:33:44.809Z,13.73
2018-08-31T23:36:14.393Z,13.73
2018-08-31T23:38:43.485Z,15.53
2018-08-31T23:41:12.541Z,14.00
2018-08-31T23:43:41.645Z,13.43
2018-08-31T23:46:11.525Z,12.17
2018-08-31T23:48:40.629Z,16.10
2018-08-31T23:51:09.730Z,16.17
2018-08-31T23:53:38.854Z,15.47
2018-08-31T23:56:08.098Z,11.73
2018-08-31T23:58:37.661Z,13.93
